Latest Coastal Weather Observations for Portland Harbour

IDV60701

Issued at 7:52 pm EST Monday 4 May 2026 (issued every 10 minutes, with the page automatically refreshed every 10 minutes)

About coastal observations | Map of coastal stations | Coastal observations for VIC | Marine services | Other Formats
Station Details ID: 090192 Name: PORTLAND NTC AWS Lat: -38.34 Lon: 141.61 Height: 0.0 m
Data from the previous 72 hours. | See also: Recent months for locations in Victoria
Date/Time
EST
Wind Sea
Height
m
Swell Vis
km
Cloud Weather Temp
°C
Press
MSL
hPa
Rain since
9am
mm
Dir  Spd
kts
Gust
kts
Height
m
Period
s
Dir
04/07:30pm WSW 13 19 - - - - - - - 14.7 1011.5 -
04/07:00pm WSW 14 27 - - - - - - - 14.5 1011.0 -
04/06:31pm WSW 16 27 - - - - - - - 14.5 1010.4 -
04/06:30pm WSW 16 25 - - - - - - - 14.5 1010.3 -
04/06:03pm WSW 17 28 - - - - - - - 14.9 1009.5 -
04/06:00pm WSW 16 24 - - - - - - - 14.9 1009.6 -
04/05:41pm WSW 17 28 - - - - - - - 14.8 1009.1 -
04/05:30pm WSW 16 25 - - - - - - - 14.7 1009.0 -
04/05:00pm WSW 19 29 - - - - - - - 15.1 1008.3 -
04/04:52pm WSW 17 29 - - - - - - - 15.1 1008.2 -
04/04:30pm WSW 17 25 - - - - - - - 15.0 1007.7 -
04/04:04pm WSW 16 27 - - - - - - - 14.3 1007.1 -
04/04:00pm WSW 16 25 - - - - - - - 14.2 1007.1 -
04/03:30pm WSW 20 31 - - - - - - - 12.9 1006.7 -
04/03:00pm W 18 28 - - - - - - - 15.4 1005.9 -
04/02:30pm W 18 29 - - - - - - - 15.8 1005.4 -
04/02:10pm W 17 27 - - - - - - - 15.8 1005.0 -
04/02:00pm W 16 23 - - - - - - - 15.3 1005.1 -
04/01:30pm W 16 23 - - - - - - - 14.6 1004.9 -
04/01:18pm W 15 29 - - - - - - - 14.1 1004.6 -
04/01:00pm WNW 15 25 - - - - - - - 14.5 1004.7 -
04/12:35pm NW 16 28 - - - - - - - 13.9 1004.6 -
04/12:30pm NW 14 20 - - - - - - - 15.2 1004.7 -
04/12:06pm NW 15 26 - - - - - - - 14.0 1004.8 -
04/12:00pm NW 15 21 - - - - - - - 14.1 1005.0 -
04/11:34am NNW 17 31 - - - - - - - 14.9 1004.7 -
04/11:30am NNW 15 23 - - - - - - - 14.6 1004.9 -
04/11:00am NNW 18 28 - - - - - - - 15.6 1004.7 -
04/10:49am NNW 17 28 - - - - - - - 15.6 1004.5 -
04/10:30am NNW 18 26 - - - - - - - 15.0 1004.8 -
04/10:08am NNW 20 30 - - - - - - - 14.8 1004.6 -
04/10:00am NNW 20 27 - - - - - - - 14.7 1004.7 -
04/09:30am NNW 20 29 - - - - - - - 14.6 1004.6 -
04/09:00am NNW 18 25 - - - - - - - 14.6 1004.7 -
04/08:30am NNW 20 29 - - - - - - - 14.5 1004.5 -
04/08:00am NNW 18 26 - - - - - - - 14.4 1004.6 -
04/07:30am NNW 19 25 - - - - - - - 14.4 1004.4 -
04/07:00am NNW 21 28 - - - - - - - 14.4 1004.1 -
04/06:30am NNW 19 25 - - - - - - - 14.4 1004.1 -
04/06:00am NNW 20 27 - - - - - - - 14.4 1004.1 -
04/05:30am NNW 23 31 - - - - - - - 14.5 1003.8 -
04/05:21am NNW 21 31 - - - - - - - 14.6 1003.8 -
04/05:00am NNW 19 24 - - - - - - - 14.6 1004.2 -
04/04:30am NNW 20 27 - - - - - - - 14.6 1004.6 -
04/04:00am NNW 19 27 - - - - - - - 14.3 1004.6 -
04/03:30am NNW 19 23 - - - - - - - 14.2 1005.0 -
04/03:00am NNW 22 29 - - - - - - - 14.5 1005.4 -
04/02:30am N 18 24 - - - - - - - 14.4 1005.8 -
04/02:00am N 14 18 - - - - - - - 14.2 1006.3 -
04/01:30am N 15 21 - - - - - - - 14.6 1006.4 -
04/01:00am N 16 20 - - - - - - - 14.7 1006.6 -
04/12:30am N 16 20 - - - - - - - 14.8 1006.7 -
04/12:00am N 16 20 - - - - - - - 14.7 1007.2 -
 
Date/Time
EST
Wind Sea
Height
m
Swell Vis
km
Cloud Weather Temp
°C
Press
MSL
hPa
Rain since
9am
mm
Dir  Spd
kts
Gust
kts
Height
m
Period
s
Dir
03/11:30pm N 16 21 - - - - - - - 14.8 1007.5 -
03/11:00pm NNW 17 20 - - - - - - - 14.8 1008.0 -
03/10:30pm NNW 17 22 - - - - - - - 14.9 1008.2 -
03/10:00pm N 18 23 - - - - - - - 15.1 1008.2 -
03/09:30pm N 15 18 - - - - - - - 15.1 1008.1 -
03/09:00pm N 15 19 - - - - - - - 14.9 1008.2 -
03/08:30pm NNW 13 17 - - - - - - - 15.0 1008.2 -
03/08:00pm N 15 19 - - - - - - - 15.3 1008.1 -
03/07:30pm N 15 20 - - - - - - - 15.3 1008.1 -
03/07:00pm N 16 20 - - - - - - - 15.8 1008.0 -
03/06:30pm NNW 14 18 - - - - - - - 16.3 1007.6 -
03/06:00pm NNW 15 24 - - - - - - - 16.6 1007.2 -
03/05:30pm NNW 15 20 - - - - - - - 16.5 1006.9 -
03/05:00pm NNW 19 31 - - - - - - - 16.7 1006.8 -
03/04:55pm NNW 15 31 - - - - - - - 16.9 1006.8 -
03/04:30pm NNW 12 16 - - - - - - - 17.1 1006.8 -
03/04:00pm NNW 16 21 - - - - - - - 17.1 1006.7 -
03/03:43pm NNW 16 26 - - - - - - - 17.2 1006.7 -
03/03:30pm NNW 13 17 - - - - - - - 17.2 1006.7 -
03/03:00pm NW 13 18 - - - - - - - 16.9 1007.0 -
03/02:30pm NNW 17 23 - - - - - - - 16.9 1007.2 -
03/02:01pm NNW 18 29 - - - - - - - 17.4 1006.9 -
03/02:00pm NNW 19 29 - - - - - - - 17.4 1006.9 -
03/01:33pm NNW 18 29 - - - - - - - 17.5 1006.9 -
03/01:30pm NNW 17 25 - - - - - - - 17.6 1007.0 -
03/01:00pm NNW 17 26 - - - - - - - 17.3 1007.3 -
03/12:42pm NNW 18 29 - - - - - - - 17.2 1007.4 -
03/12:30pm NNW 13 24 - - - - - - - 17.0 1007.5 -
03/12:00pm NNW 13 19 - - - - - - - 16.7 1007.8 -
03/11:30am NW 14 19 - - - - - - - 16.4 1008.0 -
03/11:00am NNW 16 22 - - - - - - - 16.0 1008.1 -
03/10:40am NNW 15 25 - - - - - - - 15.9 1008.2 -
03/10:30am NNW 13 18 - - - - - - - 15.7 1008.3 -
03/10:00am N 11 15 - - - - - - - 14.9 1008.5 -
03/09:30am N 9 11 - - - - - - - 14.0 1008.6 -
03/09:00am N 10 12 - - - - - - - 13.9 1008.5 -
03/08:30am N 8 10 - - - - - - - 13.6 1008.3 -
03/08:00am N 9 10 - - - - - - - 13.6 1008.3 -
03/07:30am N 8 10 - - - - - - - 13.6 1008.0 -
03/07:00am N 9 11 - - - - - - - 14.0 1008.2 -
03/06:30am N 8 10 - - - - - - - 14.0 1008.0 -
03/06:00am N 8 10 - - - - - - - 14.3 1008.2 -
03/05:30am N 8 10 - - - - - - - 14.4 1008.2 -
03/05:00am NNE 9 11 - - - - - - - 14.3 1008.3 -
03/04:30am N 6 8 - - - - - - - 14.2 1007.8 -
03/04:00am N 10 12 - - - - - - - 14.4 1008.3 -
03/03:30am N 7 10 - - - - - - - 14.4 1008.5 -
03/03:00am NNW 4 5 - - - - - - - 14.2 1008.6 -
03/02:30am NW 3 5 - - - - - - - 13.8 1008.7 -
03/02:00am W 4 6 - - - - - - - 13.4 1009.1 -
03/01:30am W 8 12 - - - - - - - 13.6 1009.2 -
03/01:00am W 9 12 - - - - - - - 14.2 1009.4 -
03/12:30am NNW 10 14 - - - - - - - 16.3 1009.1 -
03/12:00am N 13 17 - - - - - - - 16.6 1009.1 -
 
Date/Time
EST
Wind Sea
Height
m
Swell Vis
km
Cloud Weather Temp
°C
Press
MSL
hPa
Rain since
9am
mm
Dir  Spd
kts
Gust
kts
Height
m
Period
s
Dir
02/11:30pm N 13 16 - - - - - - - 16.7 1009.2 -
02/11:00pm N 15 19 - - - - - - - 16.6 1009.6 -
02/10:30pm NNE 15 19 - - - - - - - 17.2 1009.8 -
02/10:00pm N 18 21 - - - - - - - 17.3 1009.7 -
02/09:30pm N 20 25 - - - - - - - 17.3 1010.0 -
02/09:00pm N 20 26 - - - - - - - 17.8 1009.9 -
02/08:30pm N 17 22 - - - - - - - 17.8 1009.9 -
02/08:00pm N 12 14 - - - - - - - 18.4 1009.9 -
02/07:30pm NNW 9 11 - - - - - - - 18.6 1010.2 -
02/07:00pm NNW 13 19 - - - - - - - 19.5 1009.7 -
02/06:30pm N 13 16 - - - - - - - 20.8 1009.2 -
02/06:00pm NNE 16 22 - - - - - - - 20.7 1008.7 -
02/05:30pm NNE 15 17 - - - - - - - 20.1 1008.2 -
02/05:00pm NNE 14 17 - - - - - - - 20.0 1008.1 -
02/04:30pm NNE 16 20 - - - - - - - 20.3 1008.4 -
02/04:00pm N 20 24 - - - - - - - 21.7 1008.6 -
02/03:30pm N 20 26 - - - - - - - 21.3 1008.7 -
02/03:00pm N 23 29 - - - - - - - 22.4 1008.6 -
02/02:30pm N 24 32 - - - - - - - 22.8 1008.6 -
02/02:00pm N 24 31 - - - - - - - 22.9 1008.5 -
02/01:56pm N 25 35 - - - - - - - 23.3 1008.5 -
02/01:30pm N 20 29 - - - - - - - 23.3 1008.3 -
02/01:07pm N 24 36 - - - - - - - 23.0 1008.7 -
02/01:00pm N 25 32 - - - - - - - 23.9 1008.9 -
02/12:43pm NNE 20 32 - - - - - - - 22.8 1009.2 -
02/12:30pm N 21 26 - - - - - - - 22.5 1009.5 -
02/12:00pm NNE 21 32 - - - - - - - 22.2 1010.1 -
02/11:55am NNE 17 27 - - - - - - - 21.8 1010.2 -
02/11:30am N 16 22 - - - - - - - 21.5 1010.9 -
02/11:00am N 21 28 - - - - - - - 21.2 1011.3 -
02/10:30am N 25 32 - - - - - - - 22.2 1011.4 -
02/10:14am N 19 29 - - - - - - - 22.2 1011.6 -
02/10:00am N 18 24 - - - - - - - 21.8 1011.8 -
02/09:30am N 19 23 - - - - - - - 20.9 1012.0 -
02/09:00am N 17 21 - - - - - - - 20.4 1012.3 -
02/08:30am N 17 20 - - - - - - - 20.6 1012.2 -
02/08:00am N 13 17 - - - - - - - 20.2 1012.2 -
02/07:30am N 11 13 - - - - - - - 19.4 1012.3 -
02/07:00am N 9 11 - - - - - - - 18.8 1012.4 -
02/06:30am N 9 11 - - - - - - - 18.9 1012.3 -
02/06:00am NNE 9 11 - - - - - - - 19.0 1012.6 -
02/05:30am NNE 8 10 - - - - - - - 19.1 1012.7 -
02/05:00am NNE 7 8 - - - - - - - 18.5 1012.7 -
02/04:30am NNE 8 9 - - - - - - - 18.7 1013.0 -
02/04:00am NNE 5 7 - - - - - - - 18.4 1013.2 -
02/03:30am NNE 6 7 - - - - - - - 18.3 1013.5 -
02/03:00am NE 9 9 - - - - - - - 18.5 1013.8 -
02/02:30am NE 9 10 - - - - - - - 18.4 1014.1 -
02/02:00am NE 9 10 - - - - - - - 18.6 1014.5 -
02/01:30am NE 9 9 - - - - - - - 18.5 1014.9 -
02/01:00am NE 8 9 - - - - - - - 18.5 1015.1 -
02/12:30am NE 9 9 - - - - - - - 18.7 1015.3 -
02/12:00am NNE 7 8 - - - - - - - 19.0 1015.6 -
 
Date/Time
EST
Wind Sea
Height
m
Swell Vis
km
Cloud Weather Temp
°C
Press
MSL
hPa
Rain since
9am
mm
Dir  Spd
kts
Gust
kts
Height
m
Period
s
Dir
01/11:30pm NNE 8 9 - - - - - - - 19.3 1016.0 -
01/11:00pm NNE 9 10 - - - - - - - 19.1 1016.3 -
01/10:30pm NE 10 11 - - - - - - - 18.9 1016.5 -
01/10:00pm NNE 7 8 - - - - - - - 18.4 1016.7 -
01/09:30pm NNE 4 5 - - - - - - - 18.1 1016.8 -
01/09:00pm N 2 3 - - - - - - - 18.2 1017.0 -
01/08:30pm N 3 5 - - - - - - - 18.4 1017.0 -
01/08:00pm N 4 7 - - - - - - - 19.4 1017.1 -

Other formats

Comma delimited format used in spreadsheet applications
http://www.bom.gov.au/fwo/IDV60701/IDV60701.95826.axf

JavaScript Object Notation format (JSON) in row-major order
http://www.bom.gov.au/fwo/IDV60701/IDV60701.95826.json

Data quality

Most of these data are generated automatically and are frequently updated. Quality checks on data are not normally performed. It is possible for incorrect values to appear. Refer to information at About Latest Weather Observations and please check the disclaimer before using these data.